aviador You're here:

KCEW Decoded Metar

CRESTVIEW in FL, USA
Report Time2018-05-27 00:53:00
UTC Time2018-05-27 01:06:41
Flight Rules vfr VFR
WindCalm
Visibility9999 m
Phenomena:N/A
Clouds:Few 120 Hf
Expected CloudBase > 400 ft AGL from Temp-Dew spread
CeilingNone
Temp23°C (ISA +8)
Dew Point22°C (94% RH)
QNH1012 hPa
Density Alt1,535 ft
Elevation180 ft
Report Wrong Elevation
Raw Report
METAR KCEW 270053Z AUTO 00000KT 10SM FEW120 23/22 A2988 RMK AO2 SLP114
T02280217=

Extra information for KCEW:More info

Metar Taf Metar & Taf Last 4 Metars F.Rules Stats Wind Profile Meteogram Temp Stats Airport Information Weather charts Add Link Nearby VenuesMetar ALERT Operation Metar Decoded Social comments

AIRNAV info for KCEW